D/T METAR WX W/DIR W/SPE G/SPE TEMP DEWP
16/01/19 02:50 EGPB 160250Z AUTO 25029G39KT 9999 OVC018/// 08/05 Q0983 WSW (250°) 33.4mph 44.9mph 8°C 5°C
16/01/19 02:20 EGPB 160220Z AUTO 25029KT 9999 OVC017/// 08/05 Q0984 WSW (250°) 33.4mph 8°C 5°C
16/01/19 01:50 EGPB 160150Z AUTO 25024KT 9999 BKN016/// OVC031/// 08/05 Q0985 WSW (250°) 27.6mph 8°C 5°C
16/01/19 01:20 EGPB 160120Z AUTO 25028KT 9999 OVC016/// 08/06 Q0985 WSW (250°) 32.2mph 8°C 6°C
16/01/19 00:50 EGPB 160050Z AUTO 25026G36KT 9999 BKN010/// OVC025/// 08/06 Q0986 WSW (250°) 29.9mph 41.4mph 8°C 6°C
16/01/19 00:20 EGPB 160020Z AUTO 23023KT 9999 BKN007/// OVC018/// 08/07 Q0986 RERA SW (230°) 26.5mph 8°C 7°C
15/01/19 23:50 EGPB 152350Z AUTO 23022KT 7000 -RA OVC004/// 08/07 Q0987 REDZ -RA SW (230°) 25.3mph 8°C 7°C
15/01/19 22:50 EGPB 152250Z AUTO 12013KT 5000 -RA BKN004/// OVC028/// 06/05 Q0989 -RA ESE (120°) 15.0mph 6°C 5°C
15/01/19 22:20 EGPB 152220Z AUTO 11013KT 8000 -RA SCT008/// BKN018/// OVC036/// 05/04 Q0990 -RA ESE (110°) 15.0mph 5°C 4°C
15/01/19 21:50 EGPB 152150Z AUTO 12010KT 8000 -RA OVC009/// 05/03 Q0991 -RA ESE (120°) 11.5mph 5°C 3°C
15/01/19 21:20 EGPB 152120Z AUTO 12008KT 8000 -RA BKN009/// OVC027/// 05/03 Q0992 -RA ESE (120°) 9.2mph 5°C 3°C
15/01/19 20:50 EGPB 152050Z 14006KT 9999 -RA SCT011 SCT024 04/03 Q0993 TEMPO BKN011 -RA SE (140°) 6.9mph 4°C 3°C
15/01/19 20:20 EGPB 152020Z 15004KT 8000 -RA SCT012 SCT024 04/03 Q0994 -RA SSE (150°) 4.6mph 4°C 3°C
15/01/19 19:50 EGPB 151950Z 18005KT 9000 -RA SCT012 SCT020 05/03 Q0995 TEMPO BKN012 -RA S (180°) 5.8mph 5°C 3°C
15/01/19 18:20 EGPB 151820Z 21003KT 9000 -RA SCT015 BKN032 05/03 Q0997 TEMPO RA BKN014 -RA SSW (210°) 3.5mph 5°C 3°C
15/01/19 17:50 EGPB 151750Z 00000KT 9999 -RA SCT020 BKN038 05/03 Q0997 NOSIG -RA N (0°) 5°C 3°C
15/01/19 17:20 EGPB 151720Z 28002KT 8000 -RA FEW010 SCT018 BKN033 05/03 Q0997 NOSIG -RA W (280°) 2.3mph 5°C 3°C
15/01/19 16:50 EGPB 151650Z 26007KT 8000 -RA SCT017 BKN040 06/03 Q0997 NOSIG -RA W (260°) 8.1mph 6°C 3°C
15/01/19 16:20 EGPB 151620Z 25010KT 9999 -RA SCT030 BKN049 07/03 Q0998 -RA WSW (250°) 11.5mph 7°C 3°C
15/01/19 15:50 EGPB 151550Z 29006KT 9999 FEW034 07/01 Q0998 NOSIG WNW (290°) 6.9mph 7°C 1°C
15/01/19 15:20 EGPB 151520Z 29009KT 9999 FEW030 07/01 Q0998 WNW (290°) 10.4mph 7°C 1°C
15/01/19 14:50 EGPB 151450Z 29010KT 9999 FEW030 08/01 Q0998 WNW (290°) 11.5mph 8°C 1°C
15/01/19 13:50 EGPB 151350Z 30012KT 9999 FEW024 07/03 Q0999 NOSIG WNW (300°) 13.8mph 7°C 3°C
15/01/19 13:20 EGPB 151320Z 30014KT 9999 FEW022 08/02 Q0999 NOSIG WNW (300°) 16.1mph 8°C 2°C
15/01/19 12:50 EGPB 151250Z 29016G31KT 9999 FEW022 SCT030 08/02 Q0999 NOSIG WNW (290°) 18.4mph 35.7mph 8°C 2°C
15/01/19 12:20 EGPB 151220Z 29014KT 9999 FEW030 08/01 Q0999 WNW (290°) 16.1mph 8°C 1°C
15/01/19 11:50 EGPB 151150Z 30016KT 9999 FEW028 08/01 Q1000 WNW (300°) 18.4mph 8°C 1°C
15/01/19 11:20 EGPB 151120Z 29017KT 9999 VCSH FEW027 08/02 Q1000 VCSH WNW (290°) 19.6mph 8°C 2°C
15/01/19 10:50 EGPB 151050Z 29018G28KT 9999 FEW025 08/01 Q1000 WNW (290°) 20.7mph 32.2mph 8°C 1°C
15/01/19 10:20 EGPB 151020Z 29019G30KT 9999 FEW024 07/02 Q1000 WNW (290°) 21.9mph 34.5mph 7°C 2°C
15/01/19 09:50 EGPB 150950Z 29021KT 9999 VCSH FEW027 07/02 Q1000 VCSH WNW (290°) 24.2mph 7°C 2°C
15/01/19 09:20 EGPB 150920Z 29023G35KT 9999 VCSH FEW026 SCT038 07/02 Q1000 VCSH WNW (290°) 26.5mph 40.3mph 7°C 2°C
15/01/19 08:50 EGPB 150850Z 30022G32KT 9999 VCSH SCT025 08/02 Q0999 NOSIG VCSH WNW (300°) 25.3mph 36.8mph 8°C 2°C
15/01/19 08:20 EGPB 150820Z 29022G34KT 9999 VCSH FEW024 07/03 Q0999 VCSH WNW (290°) 25.3mph 39.1mph 7°C 3°C
15/01/19 07:50 EGPB 150750Z 30023KT 9999 VCSH FEW018 07/03 Q0999 VCSH WNW (300°) 26.5mph 7°C 3°C
15/01/19 07:20 EGPB 150720Z 30026G38KT 9999 VCSH FEW011 SCT017 BKN027 07/03 Q0999 VCSH WNW (300°) 29.9mph 43.7mph 7°C 3°C
15/01/19 06:50 EGPB 150650Z 30022G34KT 9999 -RA SCT015 BKN027 07/04 Q0998 -RA WNW (300°) 25.3mph 39.1mph 7°C 4°C
15/01/19 06:20 EGPB 150620Z 30026G36KT 9999 BKN029 08/02 Q0998 WNW (300°) 29.9mph 41.4mph 8°C 2°C
15/01/19 05:50 EGPB 150550Z AUTO 30027G38KT 9999 SCT028/// BKN043/// 08/02 Q0998 WNW (300°) 31.1mph 43.7mph 8°C 2°C
15/01/19 05:20 EGPB 150520Z AUTO 31030KT 9999 FEW030/// BKN042/// 08/03 Q0998 NW (310°) 34.5mph 8°C 3°C
15/01/19 04:50 EGPB 150450Z AUTO 30027G37KT 9999 FEW023/// SCT041/// 08/02 Q0998 WNW (300°) 31.1mph 42.6mph 8°C 2°C
15/01/19 04:20 EGPB 150420Z AUTO 30026G39KT 9999 FEW027/// BKN049/// 08/03 Q0998 WNW (300°) 29.9mph 44.9mph 8°C 3°C
15/01/19 03:50 EGPB 150350Z AUTO 30023G33KT 9999 SCT017/// BKN032/// OVC042/// 08/04 Q0998 WNW (300°) 26.5mph 38.0mph 8°C 4°C
15/01/19 03:20 EGPB 150320Z AUTO 29023G36KT 260V330 9999 BKN010/// BKN024/// 09/06 Q0998 RERA WNW (290°) 26.5mph 41.4mph 9°C 6°C
15/01/19 02:50 EGPB 150250Z AUTO 29024G39KT 9999 BKN009/// OVC035/// 09/07 Q0998 RERA WNW (290°) 27.6mph 44.9mph 9°C 7°C
15/01/19 02:20 EGPB 150220Z AUTO 27027KT 9999 SCT005/// OVC014/// 09/08 Q0997 RERA W (270°) 31.1mph 9°C 8°C
15/01/19 01:50 EGPB 150150Z AUTO 25029KT 3900 RA OVC004/// 09/08 Q0998 REDZ RA WSW (250°) 33.4mph 9°C 8°C
15/01/19 01:20 EGPB 150120Z AUTO 24027KT 2800 -RA BKN004/// OVC011/// 08/08 Q0998 RERA -RA WSW (240°) 31.1mph 8°C 8°C
15/01/19 00:50 EGPB 150050Z AUTO 23017KT 2200 DZ OVC004/// 08/07 Q0999 RERA DZ SW (230°) 19.6mph 8°C 7°C
15/01/19 00:20 EGPB 150020Z AUTO 19017KT 4000 -DZ OVC004/// 06/05 Q1000 -DZ S (190°) 19.6mph 6°C 5°C
14/01/19 23:50 EGPB 142350Z AUTO 18016KT 8000 OVC005/// 05/04 Q1001 RERA S (180°) 18.4mph 5°C 4°C
14/01/19 23:20 EGPB 142320Z AUTO 16011KT 4500 RA OVC006/// 04/02 Q1003 RA SSE (160°) 12.7mph 4°C 2°C
14/01/19 22:50 EGPB 142250Z AUTO 16010KT 9999 BKN012/// OVC037/// 03/02 Q1004 SSE (160°) 11.5mph 3°C 2°C
14/01/19 22:20 EGPB 142220Z AUTO 15005KT 9999 -RA BKN012/// BKN031/// OVC045/// 03/01 Q1004 -RA SSE (150°) 5.8mph 3°C 1°C
14/01/19 21:50 EGPB 142150Z AUTO 15004KT 9999 FEW014/// BKN027/// BKN042/// 03/01 Q1005 SSE (150°) 4.6mph 3°C 1°C
14/01/19 21:20 EGPB 142120Z AUTO VRB02KT 9999 -RA SCT015/// BKN024/// OVC039/// 03/01 Q1006 -RA N (0°) 2.3mph 3°C 1°C
14/01/19 20:50 EGPB 142050Z AUTO 10002KT 9999 BKN035/// 03/01 Q1007 E (100°) 2.3mph 3°C 1°C
14/01/19 20:20 EGPB 142020Z AUTO 00000KT 9999 NCD 02/01 Q1007 N (0°) 2°C 1°C
14/01/19 19:50 EGPB 141950Z 02002KT 9999 FEW021 02/01 Q1008 NOSIG NNE (20°) 2.3mph 2°C 1°C
14/01/19 19:20 EGPB 141920Z 03003KT 9999 FEW021 02/01 Q1008 NNE (30°) 3.5mph 2°C 1°C
14/01/19 18:50 EGPB 141850Z 02004KT 9999 FEW021 02/01 Q1008 NNE (20°) 4.6mph 2°C 1°C
14/01/19 17:50 EGPB 141750Z 02005KT 9999 SCT018 SCT025 03/01 Q1008 NNE (20°) 5.8mph 3°C 1°C
14/01/19 17:20 EGPB 141720Z 03010KT 9999 FEW018 SCT023 BKN047 05/01 Q1008 NNE (30°) 11.5mph 5°C 1°C
14/01/19 16:50 EGPB 141650Z 31014KT 9999 FEW018 SCT032 BKN041 06/01 Q1008 NW (310°) 16.1mph 6°C 1°C
14/01/19 16:20 EGPB 141620Z 30020G30KT 9999 VCSH SCT018 BKN035 06/01 Q1007 VCSH WNW (300°) 23.0mph 34.5mph 6°C 1°C
14/01/19 15:50 EGPB 141550Z 30014G26KT 9999 VCSH SCT018 BKN030 06/02 Q1007 VCSH WNW (300°) 16.1mph 29.9mph 6°C 2°C
14/01/19 15:20 EGPB 141520Z 29017KT 9999 VCSH SCT013 SCT025 05/03 Q1007 VCSH WNW (290°) 19.6mph 5°C 3°C
14/01/19 14:50 EGPB 141450Z 26017KT 9999 VCSH SCT014 BKN027 05/03 Q1008 VCSH W (260°) 19.6mph 5°C 3°C
14/01/19 14:20 EGPB 141420Z 25019KT 9999 SCT011 SCT025 04/03 Q1008 WSW (250°) 21.9mph 4°C 3°C
14/01/19 13:50 EGPB 141350Z 24020KT 9999 FEW008 BKN010 04/03 Q1009 WSW (240°) 23.0mph 4°C 3°C
14/01/19 13:20 EGPB 141320Z 24019KT 9999 VCSH FEW012 BKN018 04/02 Q1009 VCSH WSW (240°) 21.9mph 4°C 2°C
14/01/19 12:50 EGPB 141250Z 23012KT 9999 VCSH FEW012 BKN018 04/02 Q1010 TEMPO 4000 SHRASN VCSH SW (230°) 13.8mph 4°C 2°C
14/01/19 12:20 EGPB 141220Z 22006KT 9999 -SHRASN SCT009 BKN016 02/01 Q1011 TEMPO 2000 SHSN -SHRA -SHSN SW (220°) 6.9mph 2°C 1°C
14/01/19 11:50 EGPB 141150Z 24004KT 210V270 7000 -SHSN SCT009 BKN016 02/M00 Q1011 TEMPO 2000 SHSN BKN006 -SHSN WSW (240°) 4.6mph 2°C 0°C
14/01/19 11:20 EGPB 141120Z 00000KT 9999 -SHSN FEW012 SCT018 BKN045 03/M01 Q1012 -SHSN N (0°) 3°C -1°C
14/01/19 10:50 EGPB 141050Z VRB02KT 9999 -SHSN FEW012 BKN018 02/M00 Q1012 NOSIG -SHSN N (0°) 2.3mph 2°C 0°C
14/01/19 09:50 EGPB 140950Z 32008KT 9999 -SHSN FEW012 SCT025 02/M01 Q1013 -SHSN NW (320°) 9.2mph 2°C -1°C
14/01/19 09:20 EGPB 140920Z 32011KT 9999 VCSH FEW018 SCT030 02/M03 Q1013 NOSIG VCSH NW (320°) 12.7mph 2°C -3°C
14/01/19 08:50 EGPB 140850Z 33012KT 9999 VCSH FEW020 SCT030 03/M03 Q1013 VCSH NNW (330°) 13.8mph 3°C -3°C
14/01/19 08:20 EGPB 140820Z 33014KT 9999 FEW018 SCT032 02/M05 Q1013 NOSIG NNW (330°) 16.1mph 2°C -5°C
14/01/19 07:50 EGPB 140750Z 32019KT 9999 FEW018 SCT035 03/M04 Q1012 TEMPO 4000 -SHRASN NW (320°) 21.9mph 3°C -4°C
14/01/19 07:20 EGPB 140720Z 34017KT 9999 FEW012 SCT035 BKN045 02/M05 Q1012 NNW (340°) 19.6mph 2°C -5°C
14/01/19 06:50 EGPB 140650Z 34019G31KT 9999 FEW015 SCT035 BKN045 02/M05 Q1012 NNW (340°) 21.9mph 35.7mph 2°C -5°C
14/01/19 06:20 EGPB 140620Z 33020G30KT 9999 FEW015 SCT030 BKN045 02/M05 Q1012 NNW (330°) 23.0mph 34.5mph 2°C -5°C
14/01/19 05:50 EGPB 140550Z AUTO 33019G29KT 9999 BKN037/// 03/M05 Q1011 NNW (330°) 21.9mph 33.4mph 3°C -5°C
14/01/19 05:20 EGPB 140520Z AUTO 33024G35KT 9999 OVC039/// 02/M06 Q1011 NNW (330°) 27.6mph 40.3mph 2°C -6°C
14/01/19 04:50 EGPB 140450Z AUTO 33025KT 9999 BKN039/// 02/M06 Q1011 NNW (330°) 28.8mph 2°C -6°C
14/01/19 04:20 EGPB 140420Z AUTO 34022G34KT 9999 BKN039/// 02/M06 Q1011 NNW (340°) 25.3mph 39.1mph 2°C -6°C
14/01/19 03:50 EGPB 140350Z AUTO 33026G40KT 9999 OVC039/// 02/M06 Q1011 NNW (330°) 29.9mph 46.0mph 2°C -6°C
14/01/19 03:20 EGPB 140320Z AUTO 33026G37KT 9999 SCT033/// OVC049/// 02/M05 Q1011 NNW (330°) 29.9mph 42.6mph 2°C -5°C
14/01/19 02:50 EGPB 140250Z AUTO 33025G37KT 9999 BKN041/// 02/M06 Q1011 NNW (330°) 28.8mph 42.6mph 2°C -6°C
14/01/19 02:20 EGPB 140220Z AUTO 33023G34KT 9999 BKN039/// 02/M06 Q1010 NNW (330°) 26.5mph 39.1mph 2°C -6°C
14/01/19 01:50 EGPB 140150Z AUTO 33024KT 9999 FEW024/// BKN039/// 02/M06 Q1010 NNW (330°) 27.6mph 2°C -6°C
14/01/19 01:20 EGPB 140120Z AUTO 32028KT 9999 SCT030/// BKN045/// 02/M06 Q1010 NW (320°) 32.2mph 2°C -6°C
14/01/19 00:50 EGPB 140050Z AUTO 33027KT 9999 BKN034/// BKN048/// 02/M06 Q1009 NNW (330°) 31.1mph 2°C -6°C
14/01/19 00:20 EGPB 140020Z AUTO 34017G30KT 9999 FEW009/// SCT018/// BKN039/// 01/M03 Q1009 NNW (340°) 19.6mph 34.5mph 1°C -3°C
13/01/19 23:50 EGPB 132350Z AUTO 33023G44KT 9999 FEW024/// BKN034/// 02/M05 Q1009 NNW (330°) 26.5mph 50.6mph 2°C -5°C
13/01/19 23:20 EGPB 132320Z AUTO 34020G31KT 9999 SCT019/// SCT034/// 01/M05 Q1009 NNW (340°) 23.0mph 35.7mph 1°C -5°C
13/01/19 22:50 EGPB 132250Z AUTO 34022G32KT 9999 FEW018/// BKN037/// 01/M03 Q1008 NNW (340°) 25.3mph 36.8mph 1°C -3°C
13/01/19 22:20 EGPB 132220Z AUTO 34020KT 9999 FEW020/// BKN032/// OVC045/// 02/M05 Q1008 NNW (340°) 23.0mph 2°C -5°C
13/01/19 21:50 EGPB 132150Z AUTO 33020G37KT 9999 -SN FEW022/// BKN027/// BKN041/// 02/M04 Q1008 -SN NNW (330°) 23.0mph 42.6mph 2°C -4°C
13/01/19 21:20 EGPB 132120Z AUTO 34019KT 9999 SCT025/// BKN038/// 02/M04 Q1007 NNW (340°) 21.9mph 2°C -4°C
13/01/19 20:50 EGPB 132050Z AUTO 35020G31KT 9999 -RA FEW013/// SCT024/// BKN045/// 01/M03 Q1007 -RA N (350°) 23.0mph 35.7mph 1°C -3°C
13/01/19 20:20 EGPB 132020Z 36020G31KT 9999 -SHSN FEW021 SCT036 02/M04 Q1007 TEMPO 1000 SHSN BKN004 -SHSN N (360°) 23.0mph 35.7mph 2°C -4°C
13/01/19 20:20 EGPB 132020Z 36020G31KT 9999 -SHSN FEW021 SCT036 02/M04 Q1007 -SHSN N (360°) 23.0mph 35.7mph 2°C -4°C
13/01/19 19:20 EGPB 131920Z 01017G27KT 9999 FEW026 SCT040 02/M05 Q1006 N (10°) 19.6mph 31.1mph 2°C -5°C
13/01/19 18:50 EGPB 131850Z 01019KT 9999 FEW027 02/M06 Q1005 NOSIG N (10°) 21.9mph 2°C -6°C
13/01/19 18:20 EGPB 131820Z 02016KT 9999 FEW027 01/M04 Q1005 NNE (20°) 18.4mph 1°C -4°C
13/01/19 17:50 EGPB 131750Z 01016KT 9999 FEW029 01/M04 Q1004 NOSIG N (10°) 18.4mph 1°C -4°C
13/01/19 16:50 EGPB 131650Z 01016KT 9999 FEW029 01/M03 Q1002 NOSIG N (10°) 18.4mph 1°C -3°C
13/01/19 16:20 EGPB 131620Z 01017KT 9999 FEW027 02/M04 Q1001 N (10°) 19.6mph 2°C -4°C
13/01/19 15:50 EGPB 131550Z 02020G30KT 9999 FEW027 02/M03 Q1001 NNE (20°) 23.0mph 34.5mph 2°C -3°C
13/01/19 15:20 EGPB 131520Z 02020KT 9999 FEW024 SCT030 03/M02 Q1000 NNE (20°) 23.0mph 3°C -2°C
13/01/19 14:50 EGPB 131450Z 03021KT 9999 FEW024 SCT043 03/M01 Q0999 NOSIG NNE (30°) 24.2mph 3°C -1°C
13/01/19 14:20 EGPB 131420Z 03019KT 9999 FEW031 04/M01 Q0998 NNE (30°) 21.9mph 4°C -1°C
13/01/19 13:20 EGPB 131320Z 04018KT 9999 VCSH SCT025 04/M01 Q0997 VCSH NE (40°) 20.7mph 4°C -1°C
13/01/19 12:50 EGPB 131250Z 04019G29KT 9999 BKN024 05/01 Q0996 NE (40°) 21.9mph 33.4mph 5°C 1°C
13/01/19 12:20 EGPB 131220Z 03018KT 9999 FEW012 BKN018 05/01 Q0996 NNE (30°) 20.7mph 5°C 1°C
13/01/19 11:50 EGPB 131150Z 04016KT 9999 VCSH FEW013 BKN020 05/02 Q0995 TEMPO SHRA BKN013 VCSH NE (40°) 18.4mph 5°C 2°C
13/01/19 11:20 EGPB 131120Z 02013KT 9999 -SHRA BKN018 05/03 Q0995 TEMPO SHRA BKN014 -SHRA NNE (20°) 15.0mph 5°C 3°C
13/01/19 10:50 EGPB 131050Z 02015KT 9999 FEW016 SCT022 05/03 Q0994 NOSIG NNE (20°) 17.3mph 5°C 3°C
13/01/19 10:20 EGPB 131020Z 01012KT 9999 FEW016 SCT020 05/03 Q0994 N (10°) 13.8mph 5°C 3°C
13/01/19 09:50 EGPB 130950Z 36014KT 9999 FEW012 SCT018 06/04 Q0993 N (360°) 16.1mph 6°C 4°C
13/01/19 08:50 EGPB 130850Z AUTO 32018G29KT 9999 SCT015/// BKN028/// BKN044/// 07/04 Q0992 NW (320°) 20.7mph 33.4mph 7°C 4°C
13/01/19 08:20 EGPB 130820Z AUTO 32020G30KT 6000 -RA BKN010/// BKN023/// 06/05 Q0991 RERA -RA NW (320°) 23.0mph 34.5mph 6°C 5°C
13/01/19 07:50 EGPB 130750Z AUTO 31028KT 9999 FEW013/// SCT020/// OVC036/// 08/05 Q0991 NW (310°) 32.2mph 8°C 5°C
13/01/19 07:20 EGPB 130720Z AUTO 30029KT 9999 BKN020/// 08/05 Q0990 WNW (300°) 33.4mph 8°C 5°C
13/01/19 06:50 EGPB 130650Z AUTO 30028KT 9999 FEW013/// SCT024/// 08/05 Q0990 RERA WNW (300°) 32.2mph 8°C 5°C
13/01/19 06:20 EGPB 130620Z AUTO 30021KT 8000 -RA BKN012/// BKN023/// OVC038/// 08/06 Q0991 RERA -RA WNW (300°) 24.2mph 8°C 6°C
13/01/19 05:50 EGPB 130550Z AUTO 29024KT 8000 -RA SCT015/// BKN026/// BKN038/// 08/06 Q0991 -RA WNW (290°) 27.6mph 8°C 6°C
13/01/19 05:20 EGPB 130520Z AUTO 29025G38KT 9999 BKN013/// BKN039/// 09/06 Q0991 RERA WNW (290°) 28.8mph 43.7mph 9°C 6°C
13/01/19 04:50 EGPB 130450Z AUTO 29025G35KT 9999 BKN014/// 09/06 Q0991 WNW (290°) 28.8mph 40.3mph 9°C 6°C
13/01/19 04:20 EGPB 130420Z AUTO 29027G40KT 9999 OVC011/// 09/06 Q0992 RERA WNW (290°) 31.1mph 46.0mph 9°C 6°C
13/01/19 03:50 EGPB 130350Z AUTO 29027G42KT 9999 OVC010/// 09/07 Q0992 WNW (290°) 31.1mph 48.3mph 9°C 7°C
13/01/19 03:20 EGPB 130320Z AUTO 30027G40KT 9999 BKN006/// OVC013/// 09/07 Q0993 RERA WNW (300°) 31.1mph 46.0mph 9°C 7°C
13/01/19 02:50 EGPB 130250Z AUTO 29022G32KT 9999 BKN005/// OVC031/// 09/08 Q0993 RERA WNW (290°) 25.3mph 36.8mph 9°C 8°C
13/01/19 02:20 EGPB 130220Z AUTO 30021KT 3200 DZ OVC005/// 09/08 Q0993 DZ WNW (300°) 24.2mph 9°C 8°C
13/01/19 01:50 EGPB 130150Z AUTO 29021KT 7000 OVC006/// 09/08 Q0994 WNW (290°) 24.2mph 9°C 8°C
13/01/19 01:20 EGPB 130120Z AUTO 29023G35KT 6000 OVC007/// 09/08 Q0994 WNW (290°) 26.5mph 40.3mph 9°C 8°C
13/01/19 00:50 EGPB 130050Z AUTO 29023G37KT 9999 OVC007/// 09/08 Q0995 REDZ WNW (290°) 26.5mph 42.6mph 9°C 8°C
13/01/19 00:20 EGPB 130020Z AUTO 29024G35KT 7000 -RA OVC007/// 09/08 Q0995 -RA WNW (290°) 27.6mph 40.3mph 9°C 8°C
12/01/19 23:50 EGPB 122350Z 29024G35KT 9000 SCT006 BKN009 09/08 Q0995 WNW (290°) 27.6mph 40.3mph 9°C 8°C
12/01/19 23:20 EGPB 122320Z 29022G33KT 6000 -RA SCT006 BKN008 09/08 Q0995 TEMPO 4000 RA -RA WNW (290°) 25.3mph 38.0mph 9°C 8°C
12/01/19 22:50 EGPB 122250Z 28023KT 9000 -RA FEW005 SCT007 BKN011 09/08 Q0995 TEMPO RA BKN007 -RA W (280°) 26.5mph 9°C 8°C